sensor_id;sensor_type;location;lat;lon;timestamp;temperature;humidity
41060;DHT22;26811;53.160;8.202;2022-08-03T00:03:32;20.50;99.90
41060;DHT22;26811;53.160;8.202;2022-08-03T00:08:32;20.40;99.90
41060;DHT22;26811;53.160;8.202;2022-08-03T00:13:33;20.30;99.90
41060;DHT22;26811;53.160;8.202;2022-08-03T00:18:34;20.10;99.90
41060;DHT22;26811;53.160;8.202;2022-08-03T00:23:35;20.00;99.90
41060;DHT22;26811;53.160;8.202;2022-08-03T00:28:35;19.90;99.90
41060;DHT22;26811;53.160;8.202;2022-08-03T00:33:36;19.80;99.90
41060;DHT22;26811;53.160;8.202;2022-08-03T00:38:36;19.60;99.90
41060;DHT22;26811;53.160;8.202;2022-08-03T00:43:37;19.50;99.90
41060;DHT22;26811;53.160;8.202;2022-08-03T00:48:38;19.50;99.90
41060;DHT22;26811;53.160;8.202;2022-08-03T00:53:38;19.30;99.90
41060;DHT22;26811;53.160;8.202;2022-08-03T00:58:39;19.20;99.90
41060;DHT22;26811;53.160;8.202;2022-08-03T01:03:40;19.20;99.90
41060;DHT22;26811;53.160;8.202;2022-08-03T01:08:51;19.10;99.90
41060;DHT22;26811;53.160;8.202;2022-08-03T01:25:01;18.80;99.90
41060;DHT22;26811;53.160;8.202;2022-08-03T01:30:10;18.70;99.90
41060;DHT22;26811;53.160;8.202;2022-08-03T01:35:18;18.70;99.90
41060;DHT22;26811;53.160;8.202;2022-08-03T01:40:24;18.60;99.90
41060;DHT22;26811;53.160;8.202;2022-08-03T01:45:26;18.50;99.90
41060;DHT22;26811;53.160;8.202;2022-08-03T01:50:29;18.50;99.90
41060;DHT22;26811;53.160;8.202;2022-08-03T01:55:31;18.40;99.90
41060;DHT22;26811;53.160;8.202;2022-08-03T02:00:37;18.30;99.90
41060;DHT22;26811;53.160;8.202;2022-08-03T02:05:40;18.30;99.90
41060;DHT22;26811;53.160;8.202;2022-08-03T02:10:42;18.30;99.90
41060;DHT22;26811;53.160;8.202;2022-08-03T02:15:46;18.20;99.90
41060;DHT22;26811;53.160;8.202;2022-08-03T02:20:46;18.20;99.90
41060;DHT22;26811;53.160;8.202;2022-08-03T02:25:53;18.10;99.90
41060;DHT22;26811;53.160;8.202;2022-08-03T02:30:57;18.00;99.90
41060;DHT22;26811;53.160;8.202;2022-08-03T02:36:01;18.00;99.90
41060;DHT22;26811;53.160;8.202;2022-08-03T02:41:06;18.00;99.90
41060;DHT22;26811;53.160;8.202;2022-08-03T02:46:08;17.90;99.90
41060;DHT22;26811;53.160;8.202;2022-08-03T02:51:10;17.80;99.90
41060;DHT22;26811;53.160;8.202;2022-08-03T02:56:12;17.80;99.90
41060;DHT22;26811;53.160;8.202;2022-08-03T03:01:13;17.80;99.90
41060;DHT22;26811;53.160;8.202;2022-08-03T03:06:16;17.70;99.90
41060;DHT22;26811;53.160;8.202;2022-08-03T03:11:20;17.70;99.90
41060;DHT22;26811;53.160;8.202;2022-08-03T03:16:21;17.60;99.90
41060;DHT22;26811;53.160;8.202;2022-08-03T03:21:22;17.70;99.90
41060;DHT22;26811;53.160;8.202;2022-08-03T03:26:24;17.70;99.90
41060;DHT22;26811;53.160;8.202;2022-08-03T03:31:25;17.70;99.90
41060;DHT22;26811;53.160;8.202;2022-08-03T03:36:26;17.70;99.90
41060;DHT22;26811;53.160;8.202;2022-08-03T03:41:26;17.60;99.90
41060;DHT22;26811;53.160;8.202;2022-08-03T03:46:27;17.70;99.90
41060;DHT22;26811;53.160;8.202;2022-08-03T03:51:28;17.70;99.90
41060;DHT22;26811;53.160;8.202;2022-08-03T03:56:28;17.80;99.90
41060;DHT22;26811;53.160;8.202;2022-08-03T04:01:29;17.90;99.90
41060;DHT22;26811;53.160;8.202;2022-08-03T04:06:30;18.00;99.90
41060;DHT22;26811;53.160;8.202;2022-08-03T04:11:51;18.10;99.90
41060;DHT22;26811;53.160;8.202;2022-08-03T04:16:53;18.20;99.90
41060;DHT22;26811;53.160;8.202;2022-08-03T04:21:58;18.30;99.90
41060;DHT22;26811;53.160;8.202;2022-08-03T04:27:02;18.40;99.90
41060;DHT22;26811;53.160;8.202;2022-08-03T04:32:04;18.60;99.90
41060;DHT22;26811;53.160;8.202;2022-08-03T04:37:10;18.70;99.90
41060;DHT22;26811;53.160;8.202;2022-08-03T04:42:12;18.80;99.90
41060;DHT22;26811;53.160;8.202;2022-08-03T04:47:14;18.90;99.90
41060;DHT22;26811;53.160;8.202;2022-08-03T04:52:15;19.10;99.90
41060;DHT22;26811;53.160;8.202;2022-08-03T04:57:16;19.90;99.90
41060;DHT22;26811;53.160;8.202;2022-08-03T05:02:17;20.30;99.90
41060;DHT22;26811;53.160;8.202;2022-08-03T05:07:18;21.30;99.90
41060;DHT22;26811;53.160;8.202;2022-08-03T05:12:18;21.20;99.90
41060;DHT22;26811;53.160;8.202;2022-08-03T05:17:19;20.90;99.90
41060;DHT22;26811;53.160;8.202;2022-08-03T05:22:20;20.80;99.90
41060;DHT22;26811;53.160;8.202;2022-08-03T05:27:21;20.70;99.90
41060;DHT22;26811;53.160;8.202;2022-08-03T05:32:22;20.60;99.90
41060;DHT22;26811;53.160;8.202;2022-08-03T05:37:22;20.70;99.90
41060;DHT22;26811;53.160;8.202;2022-08-03T05:42:23;20.90;99.90
41060;DHT22;26811;53.160;8.202;2022-08-03T05:47:23;21.30;99.90
41060;DHT22;26811;53.160;8.202;2022-08-03T05:52:24;22.00;99.90
41060;DHT22;26811;53.160;8.202;2022-08-03T05:57:25;23.70;99.90
41060;DHT22;26811;53.160;8.202;2022-08-03T06:02:26;25.70;99.90
41060;DHT22;26811;53.160;8.202;2022-08-03T06:07:27;26.70;99.90
41060;DHT22;26811;53.160;8.202;2022-08-03T06:12:28;26.00;99.90
41060;DHT22;26811;53.160;8.202;2022-08-03T06:17:29;25.00;99.90
41060;DHT22;26811;53.160;8.202;2022-08-03T06:22:30;24.70;99.90
41060;DHT22;26811;53.160;8.202;2022-08-03T06:27:30;24.90;99.90
41060;DHT22;26811;53.160;8.202;2022-08-03T06:32:31;25.10;99.90
41060;DHT22;26811;53.160;8.202;2022-08-03T06:37:49;25.40;99.90
41060;DHT22;26811;53.160;8.202;2022-08-03T06:42:50;26.20;99.90
41060;DHT22;26811;53.160;8.202;2022-08-03T06:48:11;26.00;99.90
41060;DHT22;26811;53.160;8.202;2022-08-03T06:53:12;25.70;99.90
41060;DHT22;26811;53.160;8.202;2022-08-03T06:58:12;26.90;99.90
41060;DHT22;26811;53.160;8.202;2022-08-03T07:03:13;27.30;99.90
41060;DHT22;26811;53.160;8.202;2022-08-03T07:08:14;28.50;99.90
41060;DHT22;26811;53.160;8.202;2022-08-03T07:13:15;29.40;99.00
41060;DHT22;26811;53.160;8.202;2022-08-03T07:18:15;29.80;98.70
41060;DHT22;26811;53.160;8.202;2022-08-03T07:23:16;29.50;98.40
41060;DHT22;26811;53.160;8.202;2022-08-03T07:28:18;30.40;97.50
41060;DHT22;26811;53.160;8.202;2022-08-03T07:33:18;31.00;96.50
41060;DHT22;26811;53.160;8.202;2022-08-03T07:38:19;32.00;95.30
41060;DHT22;26811;53.160;8.202;2022-08-03T07:43:19;32.60;94.80
41060;DHT22;26811;53.160;8.202;2022-08-03T07:48:20;32.50;94.00
41060;DHT22;26811;53.160;8.202;2022-08-03T07:53:20;32.40;93.60
41060;DHT22;26811;53.160;8.202;2022-08-03T07:58:21;32.40;93.20
41060;DHT22;26811;53.160;8.202;2022-08-03T08:03:22;32.90;94.10
41060;DHT22;26811;53.160;8.202;2022-08-03T08:08:23;31.90;93.60
41060;DHT22;26811;53.160;8.202;2022-08-03T08:13:23;32.10;92.90
41060;DHT22;26811;53.160;8.202;2022-08-03T08:18:24;32.40;92.80
41060;DHT22;26811;53.160;8.202;2022-08-03T08:23:25;32.50;92.40
41060;DHT22;26811;53.160;8.202;2022-08-03T08:28:25;32.10;92.60
41060;DHT22;26811;53.160;8.202;2022-08-03T08:33:25;32.10;92.30
41060;DHT22;26811;53.160;8.202;2022-08-03T08:38:26;31.80;92.20
41060;DHT22;26811;53.160;8.202;2022-08-03T08:43:27;32.10;91.80
41060;DHT22;26811;53.160;8.202;2022-08-03T08:48:28;31.20;92.20
41060;DHT22;26811;53.160;8.202;2022-08-03T08:53:30;31.00;93.10
41060;DHT22;26811;53.160;8.202;2022-08-03T08:58:37;31.20;93.40
41060;DHT22;26811;53.160;8.202;2022-08-03T09:03:40;31.50;92.20
41060;DHT22;26811;53.160;8.202;2022-08-03T09:08:41;31.20;92.70
41060;DHT22;26811;53.160;8.202;2022-08-03T09:13:41;31.40;92.30
41060;DHT22;26811;53.160;8.202;2022-08-03T09:18:45;31.90;91.50
41060;DHT22;26811;53.160;8.202;2022-08-03T09:23:48;31.60;91.50
41060;DHT22;26811;53.160;8.202;2022-08-03T09:28:55;31.20;91.00
41060;DHT22;26811;53.160;8.202;2022-08-03T09:33:57;31.60;91.30
41060;DHT22;26811;53.160;8.202;2022-08-03T09:39:10;31.90;90.80
41060;DHT22;26811;53.160;8.202;2022-08-03T09:44:12;31.60;90.40
41060;DHT22;26811;53.160;8.202;2022-08-03T09:49:12;31.30;91.70
41060;DHT22;26811;53.160;8.202;2022-08-03T09:54:27;31.30;90.20
41060;DHT22;26811;53.160;8.202;2022-08-03T09:59:30;31.40;91.20
41060;DHT22;26811;53.160;8.202;2022-08-03T10:04:31;31.40;92.00
41060;DHT22;26811;53.160;8.202;2022-08-03T10:09:35;31.30;91.50
41060;DHT22;26811;53.160;8.202;2022-08-03T10:14:38;31.40;90.40
41060;DHT22;26811;53.160;8.202;2022-08-03T10:19:39;31.40;91.20
41060;DHT22;26811;53.160;8.202;2022-08-03T10:30:01;31.00;90.30
41060;DHT22;26811;53.160;8.202;2022-08-03T10:35:11;30.90;89.90
41060;DHT22;26811;53.160;8.202;2022-08-03T10:40:14;30.50;91.60
41060;DHT22;26811;53.160;8.202;2022-08-03T10:45:25;30.70;92.10
41060;DHT22;26811;53.160;8.202;2022-08-03T10:50:25;30.70;92.10
41060;DHT22;26811;53.160;8.202;2022-08-03T10:55:42;30.90;91.90
41060;DHT22;26811;53.160;8.202;2022-08-03T11:01:03;31.00;90.50
41060;DHT22;26811;53.160;8.202;2022-08-03T11:06:17;31.10;91.30
41060;DHT22;26811;53.160;8.202;2022-08-03T11:16:19;31.70;89.50
41060;DHT22;26811;53.160;8.202;2022-08-03T11:43:03;31.90;85.70
41060;DHT22;26811;53.160;8.202;2022-08-03T11:48:15;31.60;87.60
41060;DHT22;26811;53.160;8.202;2022-08-03T11:53:17;31.50;86.70
41060;DHT22;26811;53.160;8.202;2022-08-03T11:58:20;31.40;85.80
41060;DHT22;26811;53.160;8.202;2022-08-03T12:03:21;31.40;84.90
41060;DHT22;26811;53.160;8.202;2022-08-03T12:08:31;31.50;88.10
41060;DHT22;26811;53.160;8.202;2022-08-03T12:13:39;31.50;90.10
41060;DHT22;26811;53.160;8.202;2022-08-03T12:18:40;31.60;86.40
41060;DHT22;26811;53.160;8.202;2022-08-03T12:23:40;31.70;85.20
41060;DHT22;26811;53.160;8.202;2022-08-03T12:28:48;31.70;86.30
41060;DHT22;26811;53.160;8.202;2022-08-03T12:34:01;31.60;87.60
41060;DHT22;26811;53.160;8.202;2022-08-03T12:39:07;31.50;87.50
41060;DHT22;26811;53.160;8.202;2022-08-03T12:44:08;31.80;85.70
41060;DHT22;26811;53.160;8.202;2022-08-03T12:49:13;32.20;83.30
41060;DHT22;26811;53.160;8.202;2022-08-03T12:54:19;32.20;86.00
41060;DHT22;26811;53.160;8.202;2022-08-03T12:59:24;32.30;84.30
41060;DHT22;26811;53.160;8.202;2022-08-03T13:04:34;32.30;83.80
41060;DHT22;26811;53.160;8.202;2022-08-03T13:09:42;32.60;82.50
41060;DHT22;26811;53.160;8.202;2022-08-03T13:14:47;32.10;82.80
41060;DHT22;26811;53.160;8.202;2022-08-03T13:19:49;31.80;84.20
41060;DHT22;26811;53.160;8.202;2022-08-03T13:24:52;31.90;83.10
41060;DHT22;26811;53.160;8.202;2022-08-03T13:29:58;32.20;81.80
41060;DHT22;26811;53.160;8.202;2022-08-03T13:34:58;32.20;83.90
41060;DHT22;26811;53.160;8.202;2022-08-03T13:40:00;32.10;80.80
41060;DHT22;26811;53.160;8.202;2022-08-03T13:45:01;32.30;80.30
41060;DHT22;26811;53.160;8.202;2022-08-03T13:50:02;32.50;79.80
41060;DHT22;26811;53.160;8.202;2022-08-03T13:55:04;32.50;79.90
41060;DHT22;26811;53.160;8.202;2022-08-03T14:00:06;32.50;81.60
41060;DHT22;26811;53.160;8.202;2022-08-03T14:05:07;32.50;81.90
41060;DHT22;26811;53.160;8.202;2022-08-03T14:10:08;32.70;79.00
41060;DHT22;26811;53.160;8.202;2022-08-03T14:15:09;32.60;78.30
41060;DHT22;26811;53.160;8.202;2022-08-03T14:20:09;32.70;78.40
41060;DHT22;26811;53.160;8.202;2022-08-03T14:25:12;32.80;77.60
41060;DHT22;26811;53.160;8.202;2022-08-03T14:30:12;33.00;76.40
41060;DHT22;26811;53.160;8.202;2022-08-03T14:35:13;33.00;75.70
41060;DHT22;26811;53.160;8.202;2022-08-03T14:40:13;32.80;76.50
41060;DHT22;26811;53.160;8.202;2022-08-03T14:45:14;32.30;77.20
41060;DHT22;26811;53.160;8.202;2022-08-03T14:50:14;32.00;78.80
41060;DHT22;26811;53.160;8.202;2022-08-03T14:55:15;32.10;78.10
41060;DHT22;26811;53.160;8.202;2022-08-03T15:00:15;32.20;79.30
41060;DHT22;26811;53.160;8.202;2022-08-03T15:05:16;32.20;77.60
41060;DHT22;26811;53.160;8.202;2022-08-03T15:10:17;32.20;79.00
41060;DHT22;26811;53.160;8.202;2022-08-03T15:15:18;32.00;79.70
41060;DHT22;26811;53.160;8.202;2022-08-03T15:20:18;32.10;79.70
41060;DHT22;26811;53.160;8.202;2022-08-03T15:25:19;31.90;79.70
41060;DHT22;26811;53.160;8.202;2022-08-03T15:30:19;31.80;81.20
41060;DHT22;26811;53.160;8.202;2022-08-03T15:35:20;31.70;82.40
41060;DHT22;26811;53.160;8.202;2022-08-03T15:40:20;31.70;82.30
41060;DHT22;26811;53.160;8.202;2022-08-03T15:45:21;31.70;82.50
41060;DHT22;26811;53.160;8.202;2022-08-03T15:50:22;31.80;81.80
41060;DHT22;26811;53.160;8.202;2022-08-03T15:55:22;31.70;80.20
41060;DHT22;26811;53.160;8.202;2022-08-03T16:00:23;31.70;81.70
41060;DHT22;26811;53.160;8.202;2022-08-03T16:05:23;31.70;79.50
41060;DHT22;26811;53.160;8.202;2022-08-03T16:10:24;31.70;80.60
41060;DHT22;26811;53.160;8.202;2022-08-03T16:15:28;31.60;80.30
41060;DHT22;26811;53.160;8.202;2022-08-03T16:20:28;31.60;78.80
41060;DHT22;26811;53.160;8.202;2022-08-03T16:25:29;31.40;78.90
41060;DHT22;26811;53.160;8.202;2022-08-03T16:30:29;31.40;79.90
41060;DHT22;26811;53.160;8.202;2022-08-03T16:35:30;31.20;78.80
41060;DHT22;26811;53.160;8.202;2022-08-03T16:40:30;31.10;80.40
41060;DHT22;26811;53.160;8.202;2022-08-03T16:45:31;30.90;80.30
41060;DHT22;26811;53.160;8.202;2022-08-03T16:50:32;30.80;81.70
41060;DHT22;26811;53.160;8.202;2022-08-03T16:55:34;30.80;83.20
41060;DHT22;26811;53.160;8.202;2022-08-03T17:00:34;30.60;84.40
41060;DHT22;26811;53.160;8.202;2022-08-03T17:05:36;30.40;85.40
41060;DHT22;26811;53.160;8.202;2022-08-03T17:10:36;30.20;86.40
41060;DHT22;26811;53.160;8.202;2022-08-03T17:15:40;30.10;86.50
41060;DHT22;26811;53.160;8.202;2022-08-03T17:20:45;29.90;87.30
41060;DHT22;26811;53.160;8.202;2022-08-03T17:25:46;29.70;87.80
41060;DHT22;26811;53.160;8.202;2022-08-03T17:30:47;29.60;89.30
41060;DHT22;26811;53.160;8.202;2022-08-03T17:36:07;29.50;89.70
41060;DHT22;26811;53.160;8.202;2022-08-03T17:41:07;29.30;89.70
41060;DHT22;26811;53.160;8.202;2022-08-03T17:46:08;29.20;89.80
41060;DHT22;26811;53.160;8.202;2022-08-03T17:51:39;29.10;90.40
41060;DHT22;26811;53.160;8.202;2022-08-03T17:57:02;28.70;95.10
41060;DHT22;26811;53.160;8.202;2022-08-03T18:02:20;28.20;96.50
41060;DHT22;26811;53.160;8.202;2022-08-03T18:07:47;27.70;98.50
41060;DHT22;26811;53.160;8.202;2022-08-03T18:12:57;27.10;99.90
41060;DHT22;26811;53.160;8.202;2022-08-03T18:18:05;26.50;99.90
41060;DHT22;26811;53.160;8.202;2022-08-03T18:23:06;26.10;99.90
41060;DHT22;26811;53.160;8.202;2022-08-03T18:28:08;25.70;99.90
41060;DHT22;26811;53.160;8.202;2022-08-03T18:33:11;25.30;99.90
41060;DHT22;26811;53.160;8.202;2022-08-03T18:38:13;25.00;99.90
41060;DHT22;26811;53.160;8.202;2022-08-03T18:43:15;24.70;99.90
41060;DHT22;26811;53.160;8.202;2022-08-03T18:59:03;24.10;99.90
41060;DHT22;26811;53.160;8.202;2022-08-03T19:04:14;24.00;99.90
41060;DHT22;26811;53.160;8.202;2022-08-03T19:09:36;23.80;99.90
41060;DHT22;26811;53.160;8.202;2022-08-03T19:14:43;23.80;99.90
41060;DHT22;26811;53.160;8.202;2022-08-03T19:19:45;23.60;99.90
41060;DHT22;26811;53.160;8.202;2022-08-03T19:24:49;23.50;99.90
41060;DHT22;26811;53.160;8.202;2022-08-03T19:29:51;23.30;99.90
41060;DHT22;26811;53.160;8.202;2022-08-03T19:34:55;23.20;99.90
41060;DHT22;26811;53.160;8.202;2022-08-03T19:39:56;23.10;99.90
41060;DHT22;26811;53.160;8.202;2022-08-03T19:45:08;22.90;99.90
41060;DHT22;26811;53.160;8.202;2022-08-03T19:50:09;22.80;99.90
41060;DHT22;26811;53.160;8.202;2022-08-03T19:55:10;22.80;99.90
41060;DHT22;26811;53.160;8.202;2022-08-03T20:00:11;22.70;99.90
41060;DHT22;26811;53.160;8.202;2022-08-03T20:05:12;22.60;99.90
41060;DHT22;26811;53.160;8.202;2022-08-03T20:10:13;22.50;99.90
41060;DHT22;26811;53.160;8.202;2022-08-03T20:15:14;22.40;99.90
41060;DHT22;26811;53.160;8.202;2022-08-03T20:20:24;22.30;99.90
41060;DHT22;26811;53.160;8.202;2022-08-03T20:25:30;22.20;99.90
41060;DHT22;26811;53.160;8.202;2022-08-03T20:30:31;22.10;99.90
41060;DHT22;26811;53.160;8.202;2022-08-03T20:35:32;22.00;99.90
41060;DHT22;26811;53.160;8.202;2022-08-03T20:40:33;21.90;99.90
41060;DHT22;26811;53.160;8.202;2022-08-03T20:45:33;21.90;99.90
41060;DHT22;26811;53.160;8.202;2022-08-03T20:50:37;21.80;99.90
41060;DHT22;26811;53.160;8.202;2022-08-03T20:55:38;21.70;99.90
41060;DHT22;26811;53.160;8.202;2022-08-03T21:00:42;21.70;99.90
41060;DHT22;26811;53.160;8.202;2022-08-03T21:05:44;21.50;99.90
41060;DHT22;26811;53.160;8.202;2022-08-03T21:10:47;21.50;99.90
41060;DHT22;26811;53.160;8.202;2022-08-03T21:15:50;21.40;99.90
41060;DHT22;26811;53.160;8.202;2022-08-03T21:20:50;21.40;99.90
41060;DHT22;26811;53.160;8.202;2022-08-03T21:25:51;21.20;99.90
41060;DHT22;26811;53.160;8.202;2022-08-03T21:30:53;21.10;99.90
41060;DHT22;26811;53.160;8.202;2022-08-03T21:35:54;21.10;99.90
41060;DHT22;26811;53.160;8.202;2022-08-03T21:40:55;21.00;99.90
41060;DHT22;26811;53.160;8.202;2022-08-03T21:46:02;20.90;99.90
41060;DHT22;26811;53.160;8.202;2022-08-03T21:51:04;20.80;99.90
41060;DHT22;26811;53.160;8.202;2022-08-03T21:56:07;20.70;99.90
41060;DHT22;26811;53.160;8.202;2022-08-03T22:01:08;20.70;99.90
41060;DHT22;26811;53.160;8.202;2022-08-03T22:06:10;20.70;99.90
41060;DHT22;26811;53.160;8.202;2022-08-03T22:11:11;20.60;99.90
41060;DHT22;26811;53.160;8.202;2022-08-03T22:16:13;20.60;99.90
41060;DHT22;26811;53.160;8.202;2022-08-03T22:21:15;20.60;99.90
41060;DHT22;26811;53.160;8.202;2022-08-03T22:26:23;20.60;99.90
41060;DHT22;26811;53.160;8.202;2022-08-03T22:31:25;20.60;99.90
41060;DHT22;26811;53.160;8.202;2022-08-03T22:36:26;20.60;99.90
41060;DHT22;26811;53.160;8.202;2022-08-03T22:41:28;20.50;99.90
41060;DHT22;26811;53.160;8.202;2022-08-03T22:46:30;20.40;99.90
41060;DHT22;26811;53.160;8.202;2022-08-03T22:51:31;20.40;99.90
41060;DHT22;26811;53.160;8.202;2022-08-03T22:56:33;20.30;99.90
41060;DHT22;26811;53.160;8.202;2022-08-03T23:01:37;20.20;99.90
41060;DHT22;26811;53.160;8.202;2022-08-03T23:06:41;20.20;99.90
41060;DHT22;26811;53.160;8.202;2022-08-03T23:11:42;20.20;99.90
41060;DHT22;26811;53.160;8.202;2022-08-03T23:16:44;20.10;99.90
41060;DHT22;26811;53.160;8.202;2022-08-03T23:21:45;20.00;99.90
41060;DHT22;26811;53.160;8.202;2022-08-03T23:26:46;20.00;99.90
41060;DHT22;26811;53.160;8.202;2022-08-03T23:31:48;19.90;99.90
41060;DHT22;26811;53.160;8.202;2022-08-03T23:36:48;20.00;99.90
41060;DHT22;26811;53.160;8.202;2022-08-03T23:41:50;19.90;99.90
41060;DHT22;26811;53.160;8.202;2022-08-03T23:46:51;20.00;99.90
